createdAt,value
2022-12-11T00:00:22.836Z,100451.38
2022-12-11T00:02:49.525Z,100430.41
2022-12-11T00:05:16.387Z,100453.38
2022-12-11T00:07:43.035Z,100455.25
2022-12-11T00:10:09.966Z,100434.44
2022-12-11T00:12:36.567Z,100456.44
2022-12-11T00:15:05.148Z,100455.47
2022-12-11T00:17:31.995Z,100456.25
2022-12-11T00:19:58.563Z,100449.22
2022-12-11T00:22:25.124Z,100453.44
2022-12-11T00:24:51.736Z,100456.88
2022-12-11T00:27:18.370Z,100463.75
2022-12-11T00:29:45.005Z,100459.59
2022-12-11T00:32:13.041Z,100460.44
2022-12-11T00:34:39.996Z,100464.72
2022-12-11T00:37:06.789Z,100420.06
2022-12-11T00:39:33.488Z,100465.28
2022-12-11T00:42:00.272Z,100459.16
2022-12-11T00:44:26.838Z,100465.94
2022-12-11T00:46:53.622Z,100455.56
2022-12-11T00:49:21.795Z,100459.09
2022-12-11T00:51:48.387Z,100451.22
2022-12-11T00:54:14.993Z,100456.28
2022-12-11T00:56:41.571Z,100446.75
2022-12-11T00:59:08.259Z,100443.38
2022-12-11T01:01:35.313Z,100452.91
2022-12-11T01:04:01.952Z,100449.41
2022-12-11T01:06:29.979Z,100451.09
2022-12-11T01:08:56.833Z,100444.50
2022-12-11T01:11:23.504Z,100427.16
2022-12-11T01:13:50.031Z,100448.00
2022-12-11T01:16:16.859Z,100447.09
2022-12-11T01:18:44.343Z,100443.66
2022-12-11T01:21:13.282Z,100434.56
2022-12-11T01:23:41.161Z,100450.38
2022-12-11T01:26:09.609Z,100452.91
2022-12-11T01:28:36.437Z,100450.25
2022-12-11T01:31:07.175Z,100449.47
2022-12-11T01:33:33.782Z,100451.09
2022-12-11T01:36:00.428Z,100426.00
2022-12-11T01:38:27.065Z,100433.22
2022-12-11T01:40:54.979Z,100453.63
2022-12-11T01:43:21.624Z,100449.28
2022-12-11T01:45:48.683Z,100452.69
2022-12-11T01:48:18.872Z,100447.50
2022-12-11T01:50:48.831Z,100432.75
2022-12-11T01:53:19.865Z,100436.13
2022-12-11T01:55:48.237Z,100416.88
2022-12-11T01:58:18.215Z,100439.56
2022-12-11T02:00:44.930Z,100408.41
2022-12-11T02:03:11.483Z,100440.25
2022-12-11T02:05:38.227Z,100439.41
2022-12-11T02:08:07.175Z,100432.41
2022-12-11T02:10:47.711Z,100424.53
2022-12-11T02:13:21.246Z,100428.88
2022-12-11T02:15:52.598Z,100428.22
2022-12-11T02:18:28.890Z,100424.66
2022-12-11T02:21:02.277Z,100427.38
2022-12-11T02:23:45.230Z,100421.34
2022-12-11T02:26:30.142Z,100401.28
2022-12-11T02:29:00.984Z,100412.94
2022-12-11T02:31:34.678Z,100417.97
2022-12-11T02:34:04.886Z,100430.81
2022-12-11T02:36:35.837Z,100418.13
2022-12-11T02:39:04.812Z,100420.31
2022-12-11T02:41:33.836Z,100384.81
2022-12-11T02:44:04.238Z,100417.66
2022-12-11T02:46:34.248Z,100414.16
2022-12-11T02:49:04.468Z,100415.06
2022-12-11T02:51:35.022Z,100412.41
2022-12-11T02:54:02.637Z,100416.69
2022-12-11T02:56:33.587Z,100399.72
2022-12-11T02:59:06.850Z,100415.78
2022-12-11T03:01:33.708Z,100417.53
2022-12-11T03:04:00.352Z,100417.53
2022-12-11T03:06:32.128Z,100364.41
2022-12-11T03:08:58.721Z,100408.97
2022-12-11T03:11:25.239Z,100402.38
2022-12-11T03:13:53.472Z,100407.97
2022-12-11T03:16:33.689Z,100385.97
2022-12-11T03:19:09.132Z,100406.19
2022-12-11T03:21:42.364Z,100400.94
2022-12-11T03:24:12.422Z,100400.88
2022-12-11T03:26:42.204Z,100408.59
2022-12-11T03:29:17.844Z,100401.66
2022-12-11T03:31:51.840Z,100400.81
2022-12-11T03:34:23.600Z,100378.94
2022-12-11T03:36:51.688Z,100405.91
2022-12-11T03:39:24.816Z,100408.50
2022-12-11T03:41:53.533Z,100401.78
2022-12-11T03:44:21.393Z,100404.63
2022-12-11T03:46:50.320Z,100406.38
2022-12-11T03:49:20.254Z,100386.97
2022-12-11T03:51:50.020Z,100391.22
2022-12-11T03:54:17.795Z,100419.97
2022-12-11T03:56:45.455Z,100414.16
2022-12-11T03:59:12.521Z,100413.25
2022-12-11T04:01:39.700Z,100407.13
2022-12-11T04:04:07.688Z,100409.63
2022-12-11T04:06:34.447Z,100407.81
2022-12-11T04:09:00.980Z,100369.84
2022-12-11T04:11:27.609Z,100400.69
2022-12-11T04:13:54.232Z,100405.09
2022-12-11T04:16:20.803Z,100398.09
2022-12-11T04:18:47.927Z,100402.38
2022-12-11T04:21:15.887Z,100402.56
2022-12-11T04:23:42.436Z,100379.78
2022-12-11T04:26:10.745Z,100400.69
2022-12-11T04:28:37.641Z,100401.53
2022-12-11T04:31:05.101Z,100397.97
2022-12-11T04:33:31.812Z,100387.59
2022-12-11T04:35:59.340Z,100400.50
2022-12-11T04:38:27.361Z,100396.16
2022-12-11T04:40:58.184Z,100397.00
2022-12-11T04:43:24.842Z,100403.16
2022-12-11T04:45:51.346Z,100399.50
2022-12-11T04:48:18.105Z,100398.50
2022-12-11T04:50:44.790Z,100393.16
2022-12-11T04:53:11.329Z,100388.78
2022-12-11T04:55:40.428Z,100384.63
2022-12-11T04:58:07.068Z,100381.16
2022-12-11T05:00:33.580Z,100390.72
2022-12-11T05:03:00.264Z,100364.88
2022-12-11T05:05:26.888Z,100401.03
2022-12-11T05:07:53.577Z,100383.69
2022-12-11T05:10:20.113Z,100373.53
2022-12-11T05:12:48.190Z,100382.00
2022-12-11T05:15:14.780Z,100377.72
2022-12-11T05:17:41.377Z,100371.53
2022-12-11T05:20:08.935Z,100367.69
2022-12-11T05:22:35.748Z,100372.28
2022-12-11T05:25:02.389Z,100363.06
2022-12-11T05:27:29.050Z,100367.34
2022-12-11T05:29:59.600Z,100367.28
2022-12-11T05:32:26.492Z,100343.69
2022-12-11T05:34:53.211Z,100358.94
2022-12-11T05:37:19.785Z,100353.44
2022-12-11T05:39:46.260Z,100333.28
2022-12-11T05:42:12.835Z,100344.56
2022-12-11T05:44:39.313Z,100348.00
2022-12-11T05:47:07.269Z,100345.41
2022-12-11T05:49:33.765Z,100348.69
2022-12-11T05:52:00.297Z,100346.84
2022-12-11T05:54:26.774Z,100354.72
2022-12-11T05:56:53.442Z,100352.22
2022-12-11T05:59:19.959Z,100354.72
2022-12-11T06:01:46.821Z,100354.25
2022-12-11T06:04:14.890Z,100357.69
2022-12-11T06:06:42.175Z,100354.03
2022-12-11T06:09:12.593Z,100363.59
2022-12-11T06:11:39.316Z,100367.28
2022-12-11T06:14:05.843Z,100369.88
2022-12-11T06:16:32.865Z,100372.59
2022-12-11T06:18:59.715Z,100370.84
2022-12-11T06:21:29.943Z,100364.75
2022-12-11T06:23:58.487Z,100361.25
2022-12-11T06:26:25.937Z,100349.09
2022-12-11T06:28:53.072Z,100329.91
2022-12-11T06:31:20.537Z,100360.09
2022-12-11T06:33:47.391Z,100356.56
2022-12-11T06:36:16.927Z,100340.53
2022-12-11T06:38:46.020Z,100353.28
2022-12-11T06:41:12.755Z,100353.88
2022-12-11T06:43:40.816Z,100343.78
2022-12-11T06:46:09.554Z,100350.28
2022-12-11T06:48:36.909Z,100334.41
2022-12-11T06:51:06.804Z,100353.66
2022-12-11T06:53:33.452Z,100350.16
2022-12-11T06:56:03.773Z,100352.34
2022-12-11T06:58:30.331Z,100305.31
2022-12-11T07:00:56.882Z,100347.31
2022-12-11T07:03:23.433Z,100351.50
2022-12-11T07:05:50.022Z,100349.91
2022-12-11T07:08:16.884Z,100354.56
2022-12-11T07:10:43.478Z,100352.34
2022-12-11T07:13:11.383Z,100366.13
2022-12-11T07:15:40.527Z,100225.88
2022-12-11T07:18:09.028Z,100334.28
2022-12-11T07:20:35.615Z,100363.00
2022-12-11T07:23:02.145Z,100351.91
2022-12-11T07:25:28.736Z,100369.84
2022-12-11T07:27:55.421Z,100361.88
2022-12-11T07:30:23.313Z,100366.56
2022-12-11T07:32:50.301Z,100358.63
2022-12-11T07:35:16.945Z,100364.78
2022-12-11T07:37:43.714Z,100358.09
2022-12-11T07:40:11.281Z,100349.84
2022-12-11T07:42:42.827Z,100365.03
2022-12-11T07:45:12.938Z,100366.72
2022-12-11T07:47:41.318Z,100366.66
2022-12-11T07:50:08.558Z,100369.25
2022-12-11T07:52:35.930Z,100364.78
2022-12-11T07:55:03.449Z,100363.94
2022-12-11T07:57:29.967Z,100370.00
2022-12-11T07:59:56.592Z,100348.84
2022-12-11T08:02:23.228Z,100374.97
2022-12-11T08:04:51.579Z,100362.91
2022-12-11T08:07:18.318Z,100371.38
2022-12-11T08:09:44.862Z,100370.44
2022-12-11T08:12:12.487Z,100374.56
2022-12-11T08:14:39.124Z,100365.00
2022-12-11T08:17:05.745Z,100359.28
2022-12-11T08:19:32.431Z,100362.00
2022-12-11T08:22:00.522Z,100350.66
2022-12-11T08:24:27.836Z,100336.91
2022-12-11T08:26:54.334Z,100358.75
2022-12-11T08:29:20.930Z,100365.41
2022-12-11T08:31:47.536Z,100350.84
2022-12-11T08:34:14.183Z,100334.75
2022-12-11T08:36:41.165Z,100352.81
2022-12-11T08:39:10.841Z,100359.56
2022-12-11T08:41:37.410Z,100356.97
2022-12-11T08:44:05.976Z,100335.63
2022-12-11T08:46:32.783Z,100348.06
2022-12-11T08:48:59.869Z,100358.38
2022-12-11T08:51:29.125Z,100337.22
2022-12-11T08:53:56.857Z,100353.25
2022-12-11T08:56:26.270Z,100323.56
2022-12-11T08:58:53.407Z,100358.91
2022-12-11T09:01:23.336Z,100344.56
2022-12-11T09:03:51.289Z,100358.59
2022-12-11T09:06:20.130Z,100365.63
2022-12-11T09:08:52.560Z,100366.22
2022-12-11T09:11:21.610Z,100370.50
2022-12-11T09:13:49.746Z,100346.06
2022-12-11T09:16:19.412Z,100300.31
2022-12-11T09:18:47.746Z,100368.16
2022-12-11T09:21:16.961Z,100371.50
2022-12-11T09:23:44.146Z,100352.78
2022-12-11T09:26:13.041Z,100351.09
2022-12-11T09:28:44.420Z,100358.66
2022-12-11T09:31:16.246Z,100367.81
2022-12-11T09:33:43.278Z,100371.19
2022-12-11T09:36:10.911Z,100365.22
2022-12-11T09:38:38.032Z,100368.72
2022-12-11T09:41:23.010Z,100371.25
2022-12-11T09:43:59.126Z,100367.56
2022-12-11T09:46:33.802Z,100371.00
2022-12-11T09:49:02.994Z,100365.72
2022-12-11T09:51:36.605Z,100356.91
2022-12-11T09:54:05.076Z,100359.34
2022-12-11T09:56:34.335Z,100355.06
2022-12-11T09:59:09.279Z,100354.31
2022-12-11T10:01:45.378Z,100355.00
2022-12-11T10:04:25.814Z,100348.03
2022-12-11T10:07:02.359Z,100325.03
2022-12-11T10:09:39.893Z,100342.66
2022-12-11T10:12:18.740Z,100347.69
2022-12-11T10:14:58.947Z,100325.47
2022-12-11T10:17:30.823Z,100341.25
2022-12-11T10:20:00.329Z,100343.00
2022-12-11T10:22:31.592Z,100333.19
2022-12-11T10:25:16.294Z,100339.38
2022-12-11T10:27:43.109Z,100331.44
2022-12-11T10:30:16.235Z,100322.78
2022-12-11T10:32:51.308Z,100323.94
2022-12-11T10:35:29.698Z,100324.63
2022-12-11T10:38:02.456Z,100322.94
2022-12-11T10:40:30.685Z,100314.88
2022-12-11T10:42:57.227Z,100301.94
2022-12-11T10:45:24.510Z,100305.16
2022-12-11T10:48:02.365Z,100307.22
2022-12-11T10:50:29.080Z,100305.44
2022-12-11T10:52:55.813Z,100308.31
2022-12-11T10:55:25.967Z,100305.38
2022-12-11T10:57:58.673Z,100302.56
2022-12-11T11:00:35.491Z,100281.81
2022-12-11T11:03:04.651Z,100298.75
2022-12-11T11:05:33.524Z,100305.53
2022-12-11T11:08:10.860Z,100304.19
2022-12-11T11:10:37.582Z,100308.47
2022-12-11T11:13:04.104Z,100302.94
2022-12-11T11:15:31.173Z,100302.94
2022-12-11T11:18:09.159Z,100302.19
2022-12-11T11:20:42.730Z,100295.97
2022-12-11T11:23:13.909Z,100290.47
2022-12-11T11:25:50.350Z,100286.72
2022-12-11T11:28:20.773Z,100292.44
2022-12-11T11:31:00.768Z,100288.06
2022-12-11T11:33:28.793Z,100287.81
2022-12-11T11:35:58.355Z,100284.19
2022-12-11T11:38:28.507Z,100280.56
2022-12-11T11:41:05.620Z,100273.50
2022-12-11T11:43:40.597Z,100269.78
2022-12-11T11:46:13.992Z,100270.53
2022-12-11T11:48:50.264Z,100260.06
2022-12-11T11:51:24.464Z,100261.72
2022-12-11T11:53:54.310Z,100263.88
2022-12-11T11:56:23.403Z,100259.78
2022-12-11T11:58:57.029Z,100254.63
2022-12-11T12:01:24.025Z,100260.84
2022-12-11T12:03:51.641Z,100244.75
2022-12-11T12:06:34.178Z,100247.41
2022-12-11T12:09:14.692Z,100254.22
2022-12-11T12:11:49.990Z,100259.44
2022-12-11T12:14:51.034Z,100252.56
2022-12-11T12:17:22.203Z,100261.50
2022-12-11T12:19:56.146Z,100258.09
2022-12-11T12:22:40.680Z,100257.13
2022-12-11T12:25:20.655Z,100257.88
2022-12-11T12:27:56.432Z,100258.19
2022-12-11T12:30:24.185Z,100255.78
2022-12-11T12:33:12.633Z,100260.34
2022-12-11T12:35:51.993Z,100247.38
2022-12-11T12:38:30.352Z,100253.28
2022-12-11T12:41:07.699Z,100258.41
2022-12-11T12:44:00.923Z,100246.13
2022-12-11T12:46:38.481Z,100250.31
2022-12-11T12:49:10.631Z,100249.44
2022-12-11T12:51:37.260Z,100246.75
2022-12-11T12:54:12.477Z,100250.97
2022-12-11T12:56:39.797Z,100237.47
2022-12-11T12:59:17.859Z,100250.13
2022-12-11T13:01:47.609Z,100229.28
2022-12-11T13:04:55.567Z,100244.44
2022-12-11T13:07:26.005Z,100243.81
2022-12-11T13:10:00.135Z,100241.09
2022-12-11T13:12:45.126Z,100251.53
2022-12-11T13:15:31.905Z,100242.75
2022-12-11T13:17:59.332Z,100256.25
2022-12-11T13:20:27.424Z,100254.56
2022-12-11T13:23:08.173Z,100231.22
2022-12-11T13:25:49.367Z,100231.38
2022-12-11T13:28:46.124Z,100254.00
2022-12-11T13:31:30.310Z,100246.94
2022-12-11T13:34:03.303Z,100241.84
2022-12-11T13:36:33.701Z,100235.06
2022-12-11T13:39:04.429Z,100236.09
2022-12-11T13:41:36.070Z,100238.63
2022-12-11T13:44:04.739Z,100237.84
2022-12-11T13:46:35.605Z,100239.63
2022-12-11T13:49:04.174Z,100241.38
2022-12-11T13:51:32.557Z,100243.44
2022-12-11T13:54:16.685Z,100252.16
2022-12-11T13:56:56.198Z,100237.34
2022-12-11T13:59:48.238Z,100245.91
2022-12-11T14:02:21.067Z,100249.63
2022-12-11T14:04:51.173Z,100247.88
2022-12-11T14:07:25.933Z,100249.72
2022-12-11T14:09:56.704Z,100245.34
2022-12-11T14:12:24.725Z,100256.53
2022-12-11T14:14:54.628Z,100261.13
2022-12-11T14:17:25.641Z,100260.22
2022-12-11T14:19:53.328Z,100205.16
2022-12-11T14:22:22.236Z,100222.03
2022-12-11T14:24:50.703Z,100247.41
2022-12-11T14:27:18.510Z,100242.56
2022-12-11T14:29:47.263Z,100261.56
2022-12-11T14:32:18.937Z,100259.88
2022-12-11T14:34:49.373Z,100260.63
2022-12-11T14:37:20.101Z,100239.75
2022-12-11T14:39:54.261Z,100258.19
2022-12-11T14:42:24.553Z,100251.00
2022-12-11T14:44:56.289Z,100257.53
2022-12-11T14:47:27.123Z,100252.19
2022-12-11T14:49:59.786Z,100269.47
2022-12-11T14:52:31.024Z,100284.81
2022-12-11T14:55:02.996Z,100270.16
2022-12-11T14:57:30.569Z,100276.94
2022-12-11T14:59:58.939Z,100271.94
2022-12-11T15:02:29.638Z,100272.75
2022-12-11T15:05:18.711Z,100278.31
2022-12-11T15:07:55.468Z,100280.59
2022-12-11T15:10:34.776Z,100278.38
2022-12-11T15:13:02.652Z,100265.72
2022-12-11T15:15:37.505Z,100278.31
2022-12-11T15:18:12.498Z,100278.97
2022-12-11T15:20:39.181Z,100265.38
2022-12-11T15:23:07.744Z,100281.44
2022-12-11T15:25:34.483Z,100227.06
2022-12-11T15:28:01.494Z,100280.06
2022-12-11T15:30:33.118Z,100278.31
2022-12-11T15:33:05.465Z,100284.34
2022-12-11T15:35:31.893Z,100286.38
2022-12-11T15:37:59.279Z,100283.00
2022-12-11T15:40:27.174Z,100255.00
2022-12-11T15:42:54.488Z,100283.50
2022-12-11T15:45:23.716Z,100280.72
2022-12-11T15:47:52.537Z,100284.25
2022-12-11T15:50:20.999Z,100291.06
2022-12-11T15:52:48.985Z,100275.13
2022-12-11T15:55:16.091Z,100287.81
2022-12-11T15:57:47.259Z,100294.66
2022-12-11T16:00:15.513Z,100290.06
2022-12-11T16:02:42.146Z,100279.16
2022-12-11T16:05:10.772Z,100275.28
2022-12-11T16:07:37.862Z,100299.69
2022-12-11T16:10:06.110Z,100296.19
2022-12-11T16:12:32.706Z,100293.16
2022-12-11T16:14:59.650Z,100296.34
2022-12-11T16:17:26.162Z,100286.78
2022-12-11T16:19:53.459Z,100294.16
2022-12-11T16:22:21.358Z,100295.00
2022-12-11T16:24:48.182Z,100287.34
2022-12-11T16:27:19.930Z,100292.56
2022-12-11T16:29:50.487Z,100292.34
2022-12-11T16:32:17.431Z,100298.44
2022-12-11T16:34:44.384Z,100290.72
2022-12-11T16:37:11.396Z,100290.56
2022-12-11T16:39:39.388Z,100286.63
2022-12-11T16:42:06.833Z,100297.28
2022-12-11T16:44:33.517Z,100304.22
2022-12-11T16:47:00.756Z,100301.94
2022-12-11T16:49:28.298Z,100276.97
2022-12-11T16:51:58.014Z,100290.13
2022-12-11T16:54:24.740Z,100292.22
2022-12-11T16:56:52.640Z,100293.25
2022-12-11T16:59:19.479Z,100289.03
2022-12-11T17:01:46.067Z,100294.31
2022-12-11T17:04:12.637Z,100289.44
2022-12-11T17:06:39.181Z,100289.31
2022-12-11T17:09:05.753Z,100287.47
2022-12-11T17:11:32.268Z,100283.84
2022-12-11T17:14:00.523Z,100279.66
2022-12-11T17:16:28.800Z,100269.75
2022-12-11T17:18:56.021Z,100280.59
2022-12-11T17:21:23.318Z,100257.94
2022-12-11T17:23:50.585Z,100268.00
2022-12-11T17:26:17.700Z,100289.22
2022-12-11T17:28:44.861Z,100278.72
2022-12-11T17:31:17.774Z,100283.75
2022-12-11T17:33:45.215Z,100257.00
2022-12-11T17:36:14.248Z,100284.75
2022-12-11T17:38:41.078Z,100272.94
2022-12-11T17:41:08.000Z,100264.97
2022-12-11T17:43:34.625Z,100274.53
2022-12-11T17:46:01.818Z,100280.91
2022-12-11T17:48:29.837Z,100281.09
2022-12-11T17:50:56.732Z,100253.56
2022-12-11T17:53:24.167Z,100278.97
2022-12-11T17:55:52.129Z,100290.22
2022-12-11T17:58:23.435Z,100285.59
2022-12-11T18:00:54.682Z,100240.66
2022-12-11T18:03:22.336Z,100273.25
2022-12-11T18:05:53.683Z,100274.28
2022-12-11T18:08:23.036Z,100257.50
2022-12-11T18:10:50.270Z,100260.19
2022-12-11T18:13:19.883Z,100264.63
2022-12-11T18:16:01.535Z,100244.75
2022-12-11T18:18:30.132Z,100263.03
2022-12-11T18:20:58.760Z,100281.56
2022-12-11T18:23:30.373Z,100269.91
2022-12-11T18:25:58.957Z,100269.13
2022-12-11T18:28:25.970Z,100277.28
2022-12-11T18:30:56.612Z,100278.97
2022-12-11T18:33:24.120Z,100258.84
2022-12-11T18:35:51.895Z,100266.13
2022-12-11T18:38:22.418Z,100238.78
2022-12-11T18:40:50.876Z,100290.28
2022-12-11T18:43:18.154Z,100281.66
2022-12-11T18:45:46.145Z,100277.63
2022-12-11T18:48:18.791Z,100280.03
2022-12-11T18:50:46.436Z,100289.44
2022-12-11T18:53:13.279Z,100281.72
2022-12-11T18:55:46.088Z,100281.72
2022-12-11T18:58:14.972Z,100282.66
2022-12-11T19:00:42.589Z,100290.53
2022-12-11T19:03:09.667Z,100280.22
2022-12-11T19:05:36.497Z,100285.41
2022-12-11T19:08:03.773Z,100288.78
2022-12-11T19:10:30.323Z,100260.22
2022-12-11T19:12:58.295Z,100283.66
2022-12-11T19:15:24.857Z,100280.16
2022-12-11T19:17:51.464Z,100285.25
2022-12-11T19:20:47.449Z,100278.28
2022-12-11T19:23:05.388Z,100281.56
2022-12-11T19:25:32.500Z,100290.22
2022-12-11T19:28:00.841Z,100285.16
2022-12-11T19:30:27.360Z,100292.13
2022-12-11T19:32:53.946Z,100286.09
2022-12-11T19:35:20.454Z,100286.25
2022-12-11T19:37:47.016Z,100286.94
2022-12-11T19:40:13.548Z,100288.78
2022-12-11T19:42:40.249Z,100291.22
2022-12-11T19:45:09.033Z,100285.41
2022-12-11T19:47:35.781Z,100289.53
2022-12-11T19:50:02.889Z,100284.25
2022-12-11T19:52:29.492Z,100286.84
2022-12-11T19:55:01.388Z,100289.44
2022-12-11T19:57:27.826Z,100288.78
2022-12-11T19:59:57.409Z,100274.44
2022-12-11T20:02:25.893Z,100278.63
2022-12-11T20:04:52.456Z,100287.94
2022-12-11T20:07:19.455Z,100284.66
2022-12-11T20:09:46.029Z,100269.72
2022-12-11T20:12:12.718Z,100287.19
2022-12-11T20:14:39.273Z,100280.56
2022-12-11T20:17:14.613Z,100281.06
2022-12-11T20:19:43.207Z,100286.25
2022-12-11T20:22:10.445Z,100284.50
2022-12-11T20:24:37.464Z,100283.25
2022-12-11T20:27:04.244Z,100283.47
2022-12-11T20:29:31.010Z,100287.09
2022-12-11T20:31:57.571Z,100282.97
2022-12-11T20:34:24.150Z,100283.91
2022-12-11T20:36:52.846Z,100284.84
2022-12-11T20:39:19.484Z,100269.88
2022-12-11T20:41:46.081Z,100289.25
2022-12-11T20:44:12.713Z,100277.25
2022-12-11T20:46:39.227Z,100280.94
2022-12-11T20:49:05.810Z,100280.28
2022-12-11T20:51:32.396Z,100278.66
2022-12-11T20:54:00.462Z,100272.72
2022-12-11T20:56:28.677Z,100274.56
2022-12-11T20:58:55.858Z,100274.63
2022-12-11T21:01:24.404Z,100246.03
2022-12-11T21:03:51.696Z,100270.44
2022-12-11T21:06:19.845Z,100266.41
2022-12-11T21:08:46.474Z,100279.25
2022-12-11T21:11:14.492Z,100270.69
2022-12-11T21:13:41.472Z,100273.28
2022-12-11T21:16:09.300Z,100271.00
2022-12-11T21:18:35.958Z,100277.03
2022-12-11T21:21:02.813Z,100276.28
2022-12-11T21:23:29.339Z,100278.13
2022-12-11T21:25:55.864Z,100285.16
2022-12-11T21:28:23.884Z,100275.75
2022-12-11T21:30:50.653Z,100276.81
2022-12-11T21:33:17.272Z,100274.63
2022-12-11T21:35:43.778Z,100266.53
2022-12-11T21:38:10.445Z,100272.56
2022-12-11T21:40:36.968Z,100279.22
2022-12-11T21:43:03.672Z,100290.44
2022-12-11T21:46:00.251Z,100282.66
2022-12-11T21:48:22.025Z,100282.72
2022-12-11T21:50:48.515Z,100279.28
2022-12-11T21:53:15.065Z,100277.53
2022-12-11T21:55:42.054Z,100276.47
2022-12-11T21:58:09.089Z,100277.31
2022-12-11T22:00:39.229Z,100289.47
2022-12-11T22:03:05.951Z,100293.03
2022-12-11T22:05:32.469Z,100289.59
2022-12-11T22:07:59.085Z,100293.09
2022-12-11T22:10:25.744Z,100293.88
2022-12-11T22:12:53.711Z,100288.69
2022-12-11T22:15:20.357Z,100301.59
2022-12-11T22:17:48.465Z,100299.75
2022-12-11T22:20:14.952Z,100296.34
2022-12-11T22:22:42.024Z,100298.94
2022-12-11T22:25:09.141Z,100310.22
2022-12-11T22:27:35.897Z,100301.53
2022-12-11T22:30:02.618Z,100286.41
2022-12-11T22:32:29.233Z,100313.34
2022-12-11T22:34:59.798Z,100311.50
2022-12-11T22:37:26.405Z,100315.00
2022-12-11T22:39:53.052Z,100302.78
2022-12-11T22:42:19.885Z,100306.84
2022-12-11T22:44:46.356Z,100313.03
2022-12-11T22:47:12.923Z,100308.00
2022-12-11T22:49:39.407Z,100315.72
2022-12-11T22:52:07.343Z,100311.44
2022-12-11T22:54:34.067Z,100300.44
2022-12-11T22:57:00.632Z,100306.31
2022-12-11T22:59:27.128Z,100313.97
2022-12-11T23:01:53.677Z,100313.03
2022-12-11T23:04:20.176Z,100312.19
2022-12-11T23:06:47.960Z,100308.84
2022-12-11T23:09:15.834Z,100281.97
2022-12-11T23:11:42.726Z,100276.16
2022-12-11T23:14:14.691Z,100315.84
2022-12-11T23:16:41.224Z,100304.25
2022-12-11T23:19:08.034Z,100310.44
2022-12-11T23:21:35.304Z,100313.81
2022-12-11T23:24:02.142Z,100311.38
2022-12-11T23:26:30.895Z,100313.66
2022-12-11T23:28:58.620Z,100319.59
2022-12-11T23:31:26.608Z,100320.38
2022-12-11T23:33:53.197Z,100315.72
2022-12-11T23:36:19.973Z,100311.34
2022-12-11T23:38:52.557Z,100289.78
2022-12-11T23:41:21.404Z,100304.56
2022-12-11T23:43:49.281Z,100317.53
2022-12-11T23:46:19.446Z,100308.16
2022-12-11T23:48:46.408Z,100309.81
2022-12-11T23:51:15.137Z,100284.41
2022-12-11T23:53:42.794Z,100304.78
2022-12-11T23:56:12.156Z,100280.59
2022-12-11T23:58:40.168Z,100312.97
